Tropical Cyclones
[Index]
Season 2021-2022 Tropical Cyclone BILLY Track Map
Season 2021-2022 Summaries: [BoM-AU]
<<- Previous TC | BoM 2021-2022 Season | Next TC ->>

click for intensity scale information  Lat/long Grid: Show Hide

 Date Labels: Show Hide

Bureau of Meteorology Tropical Cyclone Data

Name: BILLY

12 Mar 2022 18:00 UTC to 17 Mar 2022 18:00 UTC

    date/time    lat    long    hPa   cat  kts
2022-03-12 18   11.1   107.0   1002         25          
2022-03-13 00   11.6   105.9   1004         25          
2022-03-13 06   12.6   105.4   1004         25          
2022-03-13 12   13.2   104.2   1002         30          
2022-03-13 18   14.0   103.0   1002         30          
2022-03-14 00   14.5   102.0    999         35          
2022-03-14 06   15.3   100.9    997         40          
2022-03-14 12   16.1    99.8    991    1    50          
2022-03-14 18   16.6    98.7    991    1    50          
2022-03-15 00   16.8    98.0    989    1    50          
2022-03-15 06   17.1    97.3    989    1    50          
2022-03-15 12   17.3    96.5    988    1    50          
2022-03-15 18   17.5    95.5    990    1    50          
2022-03-16 00   17.8    94.7    994    1    40          
2022-03-16 06   18.2    93.6    996         30          
2022-03-16 12   19.2    92.9    996         40          
2022-03-16 18   20.0    92.5    995    1    40          
2022-03-17 00   20.4    92.8    994    1    40          
2022-03-17 06   22.0    93.2    999         35          
2022-03-17 12   23.1    93.6   1000         35          
2022-03-17 18   23.7    93.8   1002         30          
Winds are 10-min average.

Tropical cyclone tracks developed by Michael Bath using data from the Bureau of Meteorology and Google Maps.


Document: tropical_cyclone_billy.htm
Updated: 23 June 2022
[Australian Severe Weather index] [Copyright Notice] [Email Contacts] [Search This Site] [Privacy Policy]


Main Index Home Page Stock Weather Photos Extreme Storms Discussion Storm News and Storm Chasing Reports Tropical Cyclones / Hurricanes / Typhoons Weather Data and Links Wild Fires / Bushfires Weather Observation Techniques Weather Picture Catalogue Tornado Pictures and Reports Stock Video Footage and DVDs for sale